Time;durP1;ratioP1;P1;durP2;ratioP2;P2;SDS_P1;SDS_P2;PMS_P1;PMS_P2;Temp;Humidity;BMP_temperature;BMP_pressure;BME280_temperature;BME280_humidity;BME280_pressure;Samples;Min_cycle;Max_cycle;Signal;HPM_P1;HPM_P2
2022/09/01 00:00:29;;;;;;;0.80;0.80;;;15.00;99.90;;;;;;5199108;28;20430;-49
2022/09/01 00:03:00;;;;;;;3.03;1.37;;;15.00;99.90;;;;;;5206531;28;20532;-49
2022/09/01 00:05:31;;;;;;;0.87;0.87;;;15.00;99.90;;;;;;5202726;28;20457;-50
2022/09/01 00:08:04;;;;;;;1.00;0.90;;;15.00;99.90;;;;;;5205386;28;20655;-48
2022/09/01 00:10:34;;;;;;;1.33;1.33;;;15.00;99.90;;;;;;5225015;28;20425;-49
2022/09/01 00:13:06;;;;;;;0.93;0.93;;;15.00;99.90;;;;;;5203886;28;20483;-48
2022/09/01 00:15:37;;;;;;;3.00;1.10;;;15.00;99.90;;;;;;5225058;28;20183;-48
2022/09/01 00:18:08;;;;;;;1.33;1.20;;;15.10;99.90;;;;;;5227181;28;20468;-47
2022/09/01 00:20:38;;;;;;;1.10;1.03;;;15.00;99.90;;;;;;5208241;28;20274;-51
2022/09/01 00:23:09;;;;;;;1.23;1.10;;;15.00;99.90;;;;;;5212180;28;20479;-47
2022/09/01 00:25:40;;;;;;;1.00;1.00;;;15.00;99.90;;;;;;5207092;28;20542;-48
2022/09/01 00:28:10;;;;;;;2.73;1.17;;;15.00;99.90;;;;;;5217226;28;20184;-48
2022/09/01 00:30:41;;;;;;;1.60;1.10;;;15.00;99.90;;;;;;5219755;28;20701;-48
2022/09/01 00:33:12;;;;;;;4.20;1.00;;;15.00;99.90;;;;;;5208673;28;20210;-47
2022/09/01 00:35:43;;;;;;;0.97;0.80;;;15.00;99.90;;;;;;5208105;28;20544;-46
2022/09/01 00:38:14;;;;;;;1.00;0.77;;;15.00;99.90;;;;;;5207242;28;20475;-49
2022/09/01 00:40:44;;;;;;;2.20;0.83;;;14.90;99.90;;;;;;5220843;28;20246;-48
2022/09/01 00:43:36;;;;;;;2.30;0.77;;;14.90;99.90;;;;;;5207288;28;20206;-49
2022/09/01 00:46:12;;;;;;;1.90;1.03;;;15.00;99.90;;;;;;5204761;28;20685;-50
2022/09/01 00:48:42;;;;;;;2.63;1.00;;;14.90;99.90;;;;;;5222100;28;20800;-47
2022/09/01 00:51:14;;;;;;;0.70;0.70;;;14.80;99.90;;;;;;5222090;28;20441;-48
2022/09/01 00:53:46;;;;;;;0.70;0.70;;;14.80;99.90;;;;;;5226148;28;20215;-48
2022/09/01 00:56:18;;;;;;;0.77;0.77;;;14.70;99.90;;;;;;5222770;28;20437;-48
2022/09/01 00:58:50;;;;;;;2.30;0.83;;;14.70;99.90;;;;;;5218148;28;20461;-48
2022/09/01 01:01:22;;;;;;;1.17;0.80;;;14.70;99.90;;;;;;5215719;28;20533;-49
2022/09/01 01:03:52;;;;;;;0.60;0.60;;;14.60;99.90;;;;;;5223455;28;20503;-48
2022/09/01 01:06:27;;;;;;;0.70;0.70;;;14.60;99.90;;;;;;5209249;28;20500;-48
2022/09/01 01:08:59;;;;;;;0.57;0.57;;;14.60;99.90;;;;;;5216380;28;20643;-49
2022/09/01 01:11:31;;;;;;;1.13;1.13;;;14.60;99.90;;;;;;5210184;28;20441;-48
2022/09/01 01:14:10;;;;;;;0.87;0.87;;;14.60;99.90;;;;;;5204575;28;20445;-47
2022/09/01 01:16:44;;;;;;;0.53;0.53;;;14.60;99.90;;;;;;5214635;28;20424;-47
2022/09/01 01:25:20;;;;;;;0.77;0.77;;;14.50;99.90;;;;;;5214044;28;20457;-47
2022/09/01 01:28:10;;;;;;;0.60;0.60;;;14.40;99.90;;;;;;5207369;28;20437;-48
2022/09/01 01:30:47;;;;;;;0.80;0.80;;;14.40;99.90;;;;;;5224856;28;20433;-52
2022/09/01 01:33:21;;;;;;;1.03;0.70;;;14.30;99.90;;;;;;5222616;28;20574;-48
2022/09/01 01:35:55;;;;;;;1.00;0.80;;;14.30;99.90;;;;;;5222221;28;20434;-48
2022/09/01 01:38:29;;;;;;;0.90;0.90;;;14.20;99.90;;;;;;5228360;28;20551;-48
2022/09/01 01:41:00;;;;;;;3.70;1.07;;;14.20;99.90;;;;;;5222439;28;20432;-49
2022/09/01 01:43:31;;;;;;;0.57;0.57;;;14.20;99.90;;;;;;5209365;28;21318;-47
2022/09/01 01:46:04;;;;;;;1.10;0.80;;;14.20;99.90;;;;;;5209318;28;20857;-48
2022/09/01 01:48:38;;;;;;;2.10;0.93;;;14.20;99.90;;;;;;5195899;28;20452;-48
2022/09/01 01:51:10;;;;;;;2.10;0.73;;;14.10;99.90;;;;;;5210997;28;20441;-48
2022/09/01 01:53:42;;;;;;;0.70;0.70;;;14.10;99.90;;;;;;5223317;28;20551;-52
2022/09/01 01:56:13;;;;;;;0.77;0.77;;;14.00;99.90;;;;;;5225469;28;20472;-48
2022/09/01 01:58:44;;;;;;;1.47;0.73;;;14.00;99.90;;;;;;5227897;28;20465;-47
2022/09/01 02:01:15;;;;;;;1.07;1.07;;;14.00;99.90;;;;;;5223486;28;20429;-47
2022/09/01 02:03:46;;;;;;;7.07;0.90;;;14.00;99.90;;;;;;5209681;28;20581;-48
2022/09/01 02:06:23;;;;;;;2.00;1.13;;;13.90;99.90;;;;;;5196080;28;20434;-48
2022/09/01 02:08:57;;;;;;;1.30;1.20;;;13.90;99.90;;;;;;5197089;28;20806;-49
2022/09/01 02:11:28;;;;;;;0.97;0.97;;;13.80;99.90;;;;;;5209562;28;20433;-48
2022/09/01 02:13:59;;;;;;;4.37;0.87;;;13.70;99.90;;;;;;5210583;28;20515;-47
2022/09/01 02:16:31;;;;;;;3.50;1.17;;;13.70;99.90;;;;;;5236826;28;20436;-48
2022/09/01 02:19:05;;;;;;;0.70;0.70;;;13.70;99.90;;;;;;5226542;28;20465;-48
2022/09/01 02:21:36;;;;;;;5.30;0.70;;;13.60;99.90;;;;;;5212483;28;20433;-48
2022/09/01 02:24:07;;;;;;;0.93;0.83;;;13.60;99.90;;;;;;5212316;28;20465;-49
2022/09/01 02:26:41;;;;;;;2.20;1.13;;;13.60;99.90;;;;;;5204471;28;20426;-50
2022/09/01 02:29:17;;;;;;;0.90;0.90;;;13.50;99.90;;;;;;5224347;28;20546;-48
2022/09/01 02:31:50;;;;;;;0.93;0.73;;;13.50;99.90;;;;;;5225641;28;20520;-50
2022/09/01 02:34:23;;;;;;;0.90;0.63;;;13.50;99.90;;;;;;5208798;28;20460;-50
2022/09/01 02:36:55;;;;;;;2.47;0.80;;;13.50;99.90;;;;;;5225233;28;20463;-50
2022/09/01 02:39:28;;;;;;;0.90;0.90;;;13.40;99.90;;;;;;5227857;28;20465;-50
2022/09/01 02:42:00;;;;;;;1.87;1.10;;;13.40;99.90;;;;;;5218405;28;20448;-49
2022/09/01 02:44:31;;;;;;;1.80;0.97;;;13.40;99.90;;;;;;5204379;28;20545;-51
2022/09/01 02:47:04;;;;;;;0.80;0.80;;;13.30;99.90;;;;;;5195174;28;20441;-50
2022/09/01 02:49:35;;;;;;;1.97;0.90;;;13.20;99.90;;;;;;5192531;28;20214;-49
2022/09/01 02:52:06;;;;;;;2.87;0.93;;;13.20;99.90;;;;;;5223345;28;20445;-50
2022/09/01 02:54:37;;;;;;;1.40;1.23;;;13.10;99.90;;;;;;5223460;28;20800;-49
2022/09/01 02:57:08;;;;;;;5.43;0.93;;;13.00;99.90;;;;;;5223359;28;20241;-50
2022/09/01 02:59:40;;;;;;;0.97;0.97;;;13.00;99.90;;;;;;5224326;28;20211;-49
2022/09/01 03:02:11;;;;;;;1.60;1.10;;;12.90;99.90;;;;;;5219068;28;20178;-50
2022/09/01 03:04:42;;;;;;;1.13;1.03;;;12.80;99.90;;;;;;5194582;28;20473;-51
2022/09/01 03:07:13;;;;;;;1.43;0.80;;;12.80;99.90;;;;;;5190884;28;20194;-50
2022/09/01 03:09:44;;;;;;;1.13;1.03;;;12.70;99.90;;;;;;5227179;28;20876;-50
2022/09/01 03:12:15;;;;;;;0.70;0.60;;;12.70;99.90;;;;;;5226791;28;20183;-51
2022/09/01 03:14:45;;;;;;;1.40;1.30;;;12.60;99.90;;;;;;5221137;28;20441;-50
2022/09/01 03:17:16;;;;;;;1.63;1.17;;;12.60;99.90;;;;;;5197017;28;20600;-50
2022/09/01 03:19:47;;;;;;;0.83;0.83;;;12.60;99.90;;;;;;5225323;28;20215;-49
2022/09/01 03:22:18;;;;;;;1.60;0.70;;;12.60;99.90;;;;;;5223104;28;20183;-50
2022/09/01 03:24:48;;;;;;;2.70;1.17;;;12.50;99.90;;;;;;5207979;28;20442;-50
2022/09/01 03:27:19;;;;;;;1.50;1.40;;;12.50;99.90;;;;;;5221606;28;20233;-50
2022/09/01 03:29:49;;;;;;;1.70;0.97;;;12.50;99.90;;;;;;5220267;28;20180;-48
2022/09/01 03:32:20;;;;;;;1.13;0.90;;;12.40;99.90;;;;;;5223301;28;20607;-50
2022/09/01 03:34:51;;;;;;;4.70;1.10;;;12.40;99.90;;;;;;5207901;28;20176;-50
2022/09/01 03:37:22;;;;;;;1.47;1.13;;;12.40;99.90;;;;;;5221740;28;20225;-51
2022/09/01 03:39:53;;;;;;;0.90;0.87;;;12.40;99.90;;;;;;5208304;28;20616;-49
2022/09/01 03:42:28;;;;;;;0.90;0.90;;;12.40;99.90;;;;;;5205140;28;20458;-49
2022/09/01 03:44:59;;;;;;;1.07;1.07;;;12.30;99.90;;;;;;5220143;28;20433;-51
2022/09/01 03:47:29;;;;;;;1.17;1.07;;;12.30;99.90;;;;;;5210997;28;20457;-50
2022/09/01 03:50:00;;;;;;;2.77;1.07;;;12.30;99.90;;;;;;5222530;28;20530;-49
2022/09/01 03:52:31;;;;;;;3.50;1.57;;;12.20;99.90;;;;;;5187363;28;20280;-48
2022/09/01 03:55:02;;;;;;;2.23;1.23;;;12.20;99.90;;;;;;5260102;22;20691;-51
2022/09/01 03:57:33;;;;;;;1.27;1.13;;;12.20;99.90;;;;;;5239590;28;20436;-52
2022/09/01 04:00:19;;;;;;;2.53;1.87;;;12.10;99.90;;;;;;5242844;28;20574;-50
2022/09/01 04:02:54;;;;;;;2.77;1.70;;;12.10;99.90;;;;;;5241258;28;20182;-51
2022/09/01 04:05:27;;;;;;;1.43;1.00;;;12.10;99.90;;;;;;5244113;28;20436;-50
2022/09/01 04:08:02;;;;;;;1.47;1.47;;;12.00;99.90;;;;;;5234652;28;21152;-48
2022/09/01 04:10:37;;;;;;;4.00;1.47;;;12.10;99.90;;;;;;5234494;28;20431;-50
2022/09/01 04:13:10;;;;;;;5.50;1.90;;;12.00;99.90;;;;;;5237335;28;20452;-49
2022/09/01 04:15:41;;;;;;;1.27;1.27;;;12.00;99.90;;;;;;5246068;28;20430;-49
2022/09/01 04:18:19;;;;;;;1.50;1.40;;;11.90;99.90;;;;;;5241619;28;20468;-48
2022/09/01 04:20:58;;;;;;;3.50;1.53;;;11.90;99.90;;;;;;5240405;28;20189;-49
2022/09/01 04:23:35;;;;;;;3.57;1.47;;;11.90;99.90;;;;;;5244049;28;20490;-50
2022/09/01 04:26:13;;;;;;;2.50;1.87;;;11.90;99.90;;;;;;5244172;28;20967;-51
2022/09/01 04:28:49;;;;;;;8.67;1.93;;;11.80;99.90;;;;;;5231243;28;20466;-50
2022/09/01 04:31:21;;;;;;;1.50;1.50;;;11.90;99.90;;;;;;5227018;28;20476;-48
2022/09/01 04:33:52;;;;;;;2.10;1.90;;;11.90;99.90;;;;;;5236054;28;20453;-47
2022/09/01 04:36:26;;;;;;;2.00;1.60;;;11.90;99.90;;;;;;5237195;28;20836;-48
2022/09/01 04:38:59;;;;;;;6.17;1.70;;;11.90;99.90;;;;;;5242182;28;20193;-50
2022/09/01 04:41:32;;;;;;;1.90;1.60;;;11.80;99.90;;;;;;5246136;28;20431;-48
2022/09/01 04:44:05;;;;;;;2.20;1.87;;;11.80;99.90;;;;;;5240328;28;20456;-49
2022/09/01 04:46:41;;;;;;;4.10;1.80;;;11.90;99.90;;;;;;5244269;28;20481;-51
2022/09/01 04:49:14;;;;;;;7.80;2.07;;;11.90;99.90;;;;;;5242195;28;20781;-47
2022/09/01 04:51:48;;;;;;;1.87;1.80;;;11.90;99.90;;;;;;5225466;28;20464;-48
2022/09/01 04:54:22;;;;;;;2.30;1.90;;;11.90;99.90;;;;;;5243714;28;20562;-51
2022/09/01 04:56:53;;;;;;;4.37;2.20;;;11.90;99.90;;;;;;5244787;28;20810;-50
2022/09/01 04:59:26;;;;;;;1.70;1.57;;;11.90;99.90;;;;;;5244485;28;20483;-49
2022/09/01 05:01:58;;;;;;;3.17;1.90;;;12.00;99.90;;;;;;5234069;28;20449;-51
2022/09/01 05:04:32;;;;;;;1.80;1.60;;;12.00;99.90;;;;;;5240931;28;20524;-48
2022/09/01 05:07:04;;;;;;;2.03;1.53;;;13.10;99.90;;;;;;5234105;28;20941;-50
2022/09/01 05:09:36;;;;;;;8.77;1.70;;;14.90;99.90;;;;;;5239584;28;20441;-49
2022/09/01 05:12:14;;;;;;;2.60;1.50;;;16.60;99.90;;;;;;5218750;28;20507;-48
2022/09/01 05:14:47;;;;;;;1.60;1.60;;;17.70;99.90;;;;;;5237054;28;20505;-50
2022/09/01 05:17:17;;;;;;;3.77;1.47;;;18.70;99.90;;;;;;5239590;28;20448;-50
2022/09/01 05:19:49;;;;;;;1.17;1.17;;;19.20;99.90;;;;;;5221802;28;20513;-47
2022/09/01 05:22:20;;;;;;;1.60;1.50;;;19.30;98.50;;;;;;5238655;28;20201;-48
2022/09/01 05:24:51;;;;;;;2.83;1.60;;;18.40;98.60;;;;;;5241946;28;20955;-49
2022/09/01 05:27:22;;;;;;;1.50;1.50;;;16.80;99.90;;;;;;5236355;28;20432;-48
2022/09/01 05:29:52;;;;;;;1.77;1.47;;;15.60;99.90;;;;;;5242350;28;20190;-49
2022/09/01 05:32:24;;;;;;;2.93;1.80;;;14.70;99.90;;;;;;5236845;28;20188;-51
2022/09/01 05:34:56;;;;;;;1.70;1.60;;;14.20;99.90;;;;;;5237632;28;20292;-49
2022/09/01 05:37:27;;;;;;;1.83;1.40;;;13.80;99.90;;;;;;5236257;28;20428;-49
2022/09/01 05:39:58;;;;;;;3.60;1.93;;;13.60;99.90;;;;;;5231900;28;20479;-48
2022/09/01 05:42:29;;;;;;;1.90;1.37;;;13.90;99.90;;;;;;5236736;28;20586;-48
2022/09/01 05:45:00;;;;;;;4.20;1.20;;;14.30;99.90;;;;;;5242535;28;20194;-48
2022/09/01 05:47:36;;;;;;;2.50;2.20;;;14.90;99.90;;;;;;5250829;28;20433;-49
2022/09/01 05:50:09;;;;;;;1.10;1.10;;;15.80;99.90;;;;;;5239876;28;21016;-50
2022/09/01 05:52:46;;;;;;;3.90;1.80;;;17.60;99.90;;;;;;5242232;28;20443;-50
2022/09/01 05:55:17;;;;;;;2.47;1.53;;;19.70;99.90;;;;;;5242607;28;20889;-50
2022/09/01 05:57:47;;;;;;;1.27;1.17;;;21.30;91.80;;;;;;5230409;28;20539;-49
2022/09/01 06:00:19;;;;;;;2.27;1.60;;;22.70;83.20;;;;;;5245967;28;20190;-49
2022/09/01 06:02:52;;;;;;;1.20;1.10;;;24.00;67.70;;;;;;5235716;28;20198;-51
2022/09/01 06:05:23;;;;;;;1.00;1.00;;;24.80;61.60;;;;;;5235975;28;20552;-49
2022/09/01 06:07:56;;;;;;;1.30;1.20;;;25.70;57.00;;;;;;5242282;28;20476;-49
2022/09/01 06:10:27;;;;;;;1.37;1.23;;;26.70;52.20;;;;;;5241990;28;20587;-47
2022/09/01 06:13:01;;;;;;;1.20;1.20;;;27.00;51.20;;;;;;5246905;28;20437;-47
2022/09/01 06:15:32;;;;;;;2.37;1.30;;;27.60;48.10;;;;;;5236803;28;20473;-50
2022/09/01 06:18:08;;;;;;;1.97;1.33;;;27.30;48.10;;;;;;5229769;28;20474;-48
2022/09/01 06:20:41;;;;;;;1.67;1.57;;;27.60;47.50;;;;;;5233535;28;21169;-52
2022/09/01 06:23:14;;;;;;;2.63;1.47;;;27.90;46.50;;;;;;5245152;28;20459;-49
2022/09/01 06:25:45;;;;;;;0.77;0.77;;;27.90;45.40;;;;;;5248219;28;20428;-48
2022/09/01 06:28:20;;;;;;;1.17;0.73;;;28.20;45.10;;;;;;5238045;28;20523;-48
2022/09/01 06:30:52;;;;;;;1.53;0.93;;;28.70;44.90;;;;;;5244351;28;20785;-48
2022/09/01 06:33:24;;;;;;;1.57;1.07;;;29.40;43.20;;;;;;5241533;28;20459;-49
2022/09/01 06:35:55;;;;;;;2.20;1.23;;;29.90;41.40;;;;;;5243428;28;20443;-49
2022/09/01 06:38:28;;;;;;;1.33;0.93;;;29.30;41.60;;;;;;5243649;28;20460;-49
2022/09/01 06:41:01;;;;;;;1.00;0.90;;;29.40;42.20;;;;;;5234169;28;20194;-47
2022/09/01 06:43:33;;;;;;;1.10;1.10;;;30.30;41.10;;;;;;5233496;28;20459;-48
2022/09/01 06:46:04;;;;;;;1.60;1.50;;;31.40;39.00;;;;;;5220726;28;20431;-49
2022/09/01 06:48:38;;;;;;;1.37;1.27;;;31.10;38.40;;;;;;5232987;28;20210;-48
2022/09/01 06:51:11;;;;;;;1.60;1.50;;;31.20;38.60;;;;;;5253450;28;20695;-49
2022/09/01 06:53:44;;;;;;;2.90;1.93;;;31.80;37.30;;;;;;5239619;28;20468;-48
2022/09/01 06:56:15;;;;;;;2.10;1.47;;;31.60;36.80;;;;;;5235740;28;20433;-49
2022/09/01 06:58:47;;;;;;;3.17;2.00;;;31.30;37.70;;;;;;5243321;28;20522;-47
2022/09/01 07:01:20;;;;;;;8.80;1.43;;;31.50;37.40;;;;;;5238872;28;20293;-48
2022/09/01 07:03:53;;;;;;;1.43;1.33;;;31.20;37.70;;;;;;5242991;28;20536;-49
2022/09/01 07:06:28;;;;;;;1.37;1.10;;;31.80;36.30;;;;;;5243560;28;20441;-50
2022/09/01 07:09:00;;;;;;;0.90;0.90;;;31.60;36.90;;;;;;5243000;28;20469;-50
2022/09/01 07:11:34;;;;;;;1.03;1.00;;;31.30;36.90;;;;;;5241661;28;20437;-49
2022/09/01 07:14:05;;;;;;;1.83;1.10;;;31.30;36.80;;;;;;5244851;28;21815;-49
2022/09/01 07:16:40;;;;;;;3.93;0.80;;;30.80;37.30;;;;;;5234999;28;20446;-48
2022/09/01 07:19:14;;;;;;;2.60;0.80;;;30.60;37.20;;;;;;5239426;28;20602;-47
2022/09/01 07:21:45;;;;;;;1.03;0.60;;;30.20;37.80;;;;;;5242259;28;21046;-49
2022/09/01 07:24:17;;;;;;;4.67;0.83;;;30.40;38.20;;;;;;5242011;28;20590;-53
2022/09/01 07:26:49;;;;;;;0.70;0.70;;;31.00;36.80;;;;;;5240692;28;20181;-48
2022/09/01 07:29:21;;;;;;;1.03;0.77;;;31.00;36.70;;;;;;5239623;28;20639;-48
2022/09/01 07:31:54;;;;;;;0.87;0.80;;;31.00;36.40;;;;;;5241554;28;20456;-48
2022/09/01 07:34:25;;;;;;;1.13;0.70;;;30.80;36.60;;;;;;5222655;28;20565;-49
2022/09/01 07:36:58;;;;;;;2.63;0.60;;;30.80;36.60;;;;;;5255719;28;20805;-50
2022/09/01 07:39:30;;;;;;;1.90;0.70;;;30.90;36.40;;;;;;5249149;28;20558;-50
2022/09/01 07:42:08;;;;;;;0.77;0.77;;;30.80;35.70;;;;;;5239340;28;20927;-51
2022/09/01 07:44:38;;;;;;;0.53;0.53;;;30.30;36.90;;;;;;5243192;28;20452;-48
2022/09/01 07:47:10;;;;;;;6.20;0.80;;;29.60;37.90;;;;;;5245397;28;20436;-48
2022/09/01 07:49:41;;;;;;;0.90;0.90;;;29.80;38.70;;;;;;5240278;28;20676;-51
2022/09/01 07:52:11;;;;;;;0.60;0.60;;;29.30;38.60;;;;;;5239480;28;20433;-49
2022/09/01 07:54:42;;;;;;;0.93;0.50;;;29.70;38.80;;;;;;5237641;28;20259;-48
2022/09/01 07:57:13;;;;;;;0.63;0.63;;;29.60;38.10;;;;;;5241629;28;20197;-50
2022/09/01 07:59:44;;;;;;;0.80;0.80;;;30.00;38.30;;;;;;5239697;28;20202;-48
2022/09/01 08:02:17;;;;;;;1.50;0.90;;;31.10;36.40;;;;;;5237471;28;20429;-52
2022/09/01 08:04:47;;;;;;;1.10;0.90;;;31.50;35.50;;;;;;5237754;28;20198;-48
2022/09/01 08:07:19;;;;;;;2.90;1.00;;;31.00;36.20;;;;;;5245933;28;20577;-48
2022/09/01 08:09:50;;;;;;;2.20;0.70;;;30.60;36.60;;;;;;5239770;28;20190;-48
2022/09/01 08:12:21;;;;;;;1.50;0.63;;;30.70;36.70;;;;;;5226097;28;20528;-49
2022/09/01 08:14:52;;;;;;;1.37;0.90;;;30.60;36.50;;;;;;5235977;28;20725;-46
2022/09/01 08:17:22;;;;;;;0.80;0.70;;;30.20;36.60;;;;;;5238064;28;20954;-49
2022/09/01 08:19:53;;;;;;;1.47;0.87;;;29.40;38.30;;;;;;5240133;28;20464;-47
2022/09/01 08:22:24;;;;;;;3.33;0.60;;;28.90;39.70;;;;;;5244226;28;20174;-47
2022/09/01 08:24:55;;;;;;;0.50;0.50;;;28.10;40.60;;;;;;5245382;28;20194;-50
2022/09/01 08:27:25;;;;;;;0.70;0.70;;;28.00;41.60;;;;;;5243521;28;20224;-47
2022/09/01 08:29:56;;;;;;;0.73;0.53;;;27.20;41.90;;;;;;5241029;28;20532;-47
2022/09/01 08:32:26;;;;;;;0.50;0.50;;;26.00;43.40;;;;;;5233682;28;20187;-49
2022/09/01 08:34:57;;;;;;;0.93;0.93;;;24.50;46.00;;;;;;5245667;28;20210;-48
2022/09/01 08:37:27;;;;;;;1.13;0.97;;;23.50;48.00;;;;;;5236929;28;20186;-48
2022/09/01 08:39:58;;;;;;;0.50;0.50;;;22.80;49.00;;;;;;5250497;28;20384;-48
2022/09/01 08:43:17;;;;;;;0.87;0.87;;;22.70;50.20;;;;;;5236378;28;20190;-50
2022/09/01 08:45:52;;;;;;;1.07;0.97;;;22.40;50.30;;;;;;5223354;28;20195;-48
2022/09/01 08:48:28;;;;;;;1.10;0.93;;;21.90;50.80;;;;;;5247903;28;20442;-48
2022/09/01 08:51:11;;;;;;;1.47;0.60;;;21.10;52.60;;;;;;5234410;28;20490;-49
2022/09/01 08:54:05;;;;;;;0.73;0.73;;;20.60;53.30;;;;;;5244582;28;20533;-48
2022/09/01 08:56:38;;;;;;;0.60;0.60;;;20.20;53.70;;;;;;5233367;28;20484;-48
2022/09/01 08:59:10;;;;;;;1.00;0.80;;;20.00;55.20;;;;;;5235662;28;21187;-48
2022/09/01 09:01:58;;;;;;;1.13;1.03;;;20.00;55.90;;;;;;5231581;28;20674;-49
2022/09/01 09:04:48;;;;;;;0.63;0.63;;;20.00;55.90;;;;;;5230862;28;20474;-49
2022/09/01 09:07:56;;;;;;;0.70;0.70;;;19.90;55.50;;;;;;5239023;28;20937;-49
2022/09/01 09:10:36;;;;;;;0.93;0.80;;;19.80;55.20;;;;;;5239475;28;20440;-49
2022/09/01 09:13:16;;;;;;;0.80;0.70;;;19.90;55.40;;;;;;5248485;28;20553;-47
2022/09/01 09:15:55;;;;;;;0.77;0.70;;;19.90;55.80;;;;;;5236933;28;20436;-49
2022/09/01 09:18:44;;;;;;;0.97;0.60;;;19.80;55.30;;;;;;5239653;28;20464;-49
2022/09/01 09:21:32;;;;;;;1.57;0.97;;;19.60;55.90;;;;;;5226459;28;20758;-48
2022/09/01 09:24:11;;;;;;;1.17;1.13;;;19.70;56.60;;;;;;5235901;28;20899;-49
2022/09/01 09:26:48;;;;;;;2.13;0.83;;;19.70;57.10;;;;;;5236432;28;20758;-48
2022/09/01 09:29:20;;;;;;;0.50;0.50;;;19.60;55.20;;;;;;5230670;28;20966;-47
2022/09/01 09:32:05;;;;;;;1.43;0.70;;;19.30;55.50;;;;;;5239033;28;20433;-47
2022/09/01 09:34:41;;;;;;;0.63;0.50;;;19.40;56.40;;;;;;5240048;28;23459;-47
2022/09/01 09:37:22;;;;;;;0.50;0.50;;;19.60;55.20;;;;;;5235379;28;20439;-46
2022/09/01 09:40:13;;;;;;;0.70;0.70;;;19.70;54.70;;;;;;5240605;28;20547;-47
2022/09/01 09:42:53;;;;;;;3.20;0.80;;;19.60;55.40;;;;;;5247085;28;20420;-47
2022/09/01 09:45:39;;;;;;;0.53;0.53;;;19.40;55.60;;;;;;5235228;28;20530;-47
2022/09/01 09:48:30;;;;;;;0.77;0.60;;;19.30;56.40;;;;;;5243777;28;20997;-53
2022/09/01 09:51:20;;;;;;;2.47;0.67;;;19.50;56.30;;;;;;5235881;28;21132;-53
2022/09/01 09:53:50;;;;;;;0.50;0.50;;;19.90;55.50;;;;;;5251304;22;20494;-50
2022/09/01 09:56:24;;;;;;;0.73;0.63;;;20.30;54.10;;;;;;5205598;28;20425;-49
2022/09/01 09:58:55;;;;;;;0.50;0.40;;;20.40;51.60;;;;;;5214047;28;20203;-51
2022/09/01 10:01:26;;;;;;;0.50;0.50;;;20.40;51.40;;;;;;5208711;28;20434;-49
2022/09/01 10:03:59;;;;;;;1.33;0.83;;;20.30;51.10;;;;;;5201964;28;21066;-52
2022/09/01 10:06:35;;;;;;;0.60;0.60;;;20.40;51.10;;;;;;5181522;28;20435;-49
2022/09/01 10:09:18;;;;;;;0.80;0.80;;;20.50;51.20;;;;;;5185382;28;20431;-47
2022/09/01 10:11:54;;;;;;;1.60;0.97;;;20.50;51.30;;;;;;5202495;28;20446;-49
2022/09/01 10:14:32;;;;;;;0.50;0.50;;;20.50;51.00;;;;;;5192022;28;20465;-47
2022/09/01 10:17:41;;;;;;;0.97;0.60;;;20.20;49.60;;;;;;5196033;28;20803;-50
2022/09/01 10:20:17;;;;;;;0.57;0.57;;;20.10;51.10;;;;;;5128940;28;20483;-51
2022/09/01 10:22:48;;;;;;;0.40;0.40;;;20.20;50.80;;;;;;5175517;28;20451;-51
2022/09/01 10:25:24;;;;;;;2.33;2.23;;;20.30;51.00;;;;;;5180063;28;20778;-50
2022/09/01 10:28:11;;;;;;;1.00;1.00;;;20.40;51.30;;;;;;5174714;28;20435;-50
2022/09/01 10:30:45;;;;;;;0.60;0.60;;;20.60;50.10;;;;;;5175203;28;20443;-51
2022/09/01 10:33:18;;;;;;;0.60;0.60;;;20.60;49.60;;;;;;5192471;28;20510;-50
2022/09/01 10:35:52;;;;;;;0.57;0.57;;;20.60;49.40;;;;;;5173258;28;20487;-53
2022/09/01 10:38:29;;;;;;;0.50;0.50;;;20.30;49.70;;;;;;5178467;28;20494;-52
2022/09/01 10:41:06;;;;;;;0.50;0.50;;;20.30;49.10;;;;;;5176121;28;20455;-50
2022/09/01 10:43:40;;;;;;;0.97;0.40;;;20.40;49.00;;;;;;5177372;28;20818;-51
2022/09/01 10:46:36;;;;;;;1.17;0.80;;;20.50;49.10;;;;;;5197071;28;20439;-52
2022/09/01 10:49:40;;;;;;;1.03;0.93;;;20.60;49.00;;;;;;5177752;28;20526;-50
2022/09/01 10:52:31;;;;;;;0.73;0.67;;;20.60;48.80;;;;;;5177410;28;20875;-53
2022/09/01 10:55:03;;;;;;;2.63;0.93;;;20.70;49.10;;;;;;5176022;28;20978;-49
2022/09/01 10:58:12;;;;;;;0.60;0.50;;;20.70;47.60;;;;;;5188441;28;20802;-52
2022/09/01 11:00:44;;;;;;;1.67;0.70;;;20.50;48.60;;;;;;5178521;28;20967;-52
2022/09/01 11:03:17;;;;;;;1.27;0.50;;;20.60;48.70;;;;;;5200719;28;20470;-53
2022/09/01 11:06:01;;;;;;;0.67;0.67;;;20.70;48.70;;;;;;5170393;28;20432;-52
2022/09/01 11:08:31;;;;;;;0.73;0.40;;;20.60;48.30;;;;;;5181653;28;20626;-54
2022/09/01 11:11:34;;;;;;;1.23;1.10;;;20.60;47.80;;;;;;5199385;28;20600;-54
2022/09/01 11:14:21;;;;;;;0.83;0.83;;;20.90;48.60;;;;;;5159537;28;20303;-51
2022/09/01 11:17:30;;;;;;;1.90;1.13;;;20.90;47.70;;;;;;5174092;28;20585;-51
2022/09/01 11:20:09;;;;;;;0.50;0.50;;;20.80;47.60;;;;;;5165650;28;20474;-52
2022/09/01 11:23:04;;;;;;;2.60;0.80;;;20.60;48.30;;;;;;5174415;28;20463;-51
2022/09/01 11:25:52;;;;;;;0.50;0.50;;;20.40;48.30;;;;;;5172563;28;20505;-53
2022/09/01 11:28:23;;;;;;;0.53;0.53;;;20.20;48.60;;;;;;5169696;28;20530;-52
2022/09/01 11:31:07;;;;;;;0.30;0.30;;;20.20;47.80;;;;;;5193738;28;20932;-52
2022/09/01 11:34:10;;;;;;;0.60;0.43;;;20.20;47.00;;;;;;5183325;28;20200;-53
2022/09/01 11:36:46;;;;;;;1.07;0.43;;;20.60;46.30;;;;;;5183696;28;20462;-53
2022/09/01 11:39:16;;;;;;;0.57;0.57;;;21.30;45.60;;;;;;5180947;28;20466;-53
2022/09/01 11:42:20;;;;;;;0.57;0.57;;;21.90;44.10;;;;;;5178958;28;20451;-51
2022/09/01 11:45:14;;;;;;;6.33;0.80;;;22.20;44.20;;;;;;5182395;28;20200;-53
2022/09/01 11:47:49;;;;;;;1.07;0.60;;;22.30;43.20;;;;;;5174985;28;20549;-51
2022/09/01 11:50:25;;;;;;;0.43;0.43;;;22.10;43.40;;;;;;5179873;28;20438;-50
2022/09/01 11:52:57;;;;;;;0.50;0.50;;;21.90;43.70;;;;;;5179471;28;20798;-53
2022/09/01 11:55:35;;;;;;;1.43;0.50;;;21.60;43.60;;;;;;5177762;28;20528;-53
2022/09/01 11:58:11;;;;;;;0.50;0.50;;;21.40;43.90;;;;;;5174845;28;20443;-53
2022/09/01 12:00:42;;;;;;;2.10;0.60;;;21.10;44.50;;;;;;5166221;28;20511;-52
2022/09/01 12:03:18;;;;;;;1.33;0.80;;;21.10;45.10;;;;;;5175867;28;20754;-53
2022/09/01 12:06:04;;;;;;;4.57;0.70;;;21.10;45.30;;;;;;5179397;28;20176;-53
2022/09/01 12:08:38;;;;;;;0.70;0.70;;;21.30;45.60;;;;;;5174800;28;20442;-49
2022/09/01 12:11:17;;;;;;;0.93;0.60;;;21.30;45.90;;;;;;5167616;28;20474;-53
2022/09/01 12:14:01;;;;;;;1.80;0.60;;;21.30;46.40;;;;;;5178274;28;21105;-51
2022/09/01 12:16:35;;;;;;;0.80;0.80;;;21.30;47.30;;;;;;5175161;28;20473;-51
2022/09/01 12:19:06;;;;;;;0.70;0.40;;;21.30;48.40;;;;;;5175495;28;20787;-52
2022/09/01 12:21:42;;;;;;;1.60;0.60;;;21.50;48.50;;;;;;5161091;28;20443;-50
2022/09/01 12:24:20;;;;;;;2.10;1.10;;;21.40;48.90;;;;;;5175805;28;20243;-52
2022/09/01 12:26:53;;;;;;;1.80;0.93;;;21.40;48.70;;;;;;5174812;28;20522;-50
2022/09/01 12:29:24;;;;;;;0.53;0.53;;;21.40;49.10;;;;;;5175750;28;20482;-52
2022/09/01 12:31:55;;;;;;;0.80;0.63;;;21.30;48.40;;;;;;5176020;28;20439;-52
2022/09/01 12:34:32;;;;;;;0.90;0.67;;;21.30;48.50;;;;;;5176449;28;20455;-52
2022/09/01 12:37:02;;;;;;;1.23;1.13;;;21.20;48.50;;;;;;5170361;28;20547;-52
2022/09/01 12:39:37;;;;;;;1.17;0.50;;;21.20;48.70;;;;;;5176756;28;20466;-52
2022/09/01 12:42:31;;;;;;;0.53;0.53;;;21.20;48.40;;;;;;5176873;28;20180;-53
2022/09/01 12:45:06;;;;;;;0.40;0.40;;;21.00;48.60;;;;;;5187039;28;21188;-52
2022/09/01 12:47:39;;;;;;;1.13;0.70;;;20.90;49.40;;;;;;5174523;28;20435;-51
2022/09/01 12:50:12;;;;;;;0.50;0.50;;;20.70;50.00;;;;;;5175292;28;20518;-53
2022/09/01 12:52:49;;;;;;;3.83;0.63;;;20.50;50.50;;;;;;5178002;28;20521;-51
2022/09/01 12:55:23;;;;;;;1.60;1.60;;;20.60;50.80;;;;;;5174311;28;20478;-52
2022/09/01 12:57:56;;;;;;;1.20;1.10;;;20.80;50.10;;;;;;5175493;28;20906;-53
2022/09/01 13:00:33;;;;;;;1.23;1.23;;;21.10;49.40;;;;;;5175317;28;20554;-53
2022/09/01 13:03:16;;;;;;;4.23;1.30;;;21.50;48.00;;;;;;5173820;28;20953;-51
2022/09/01 13:05:51;;;;;;;0.83;0.63;;;21.80;47.00;;;;;;5173585;28;20485;-52
2022/09/01 13:08:25;;;;;;;0.60;0.60;;;22.00;46.60;;;;;;5181693;28;20431;-52
2022/09/01 13:11:08;;;;;;;0.90;0.67;;;22.20;46.10;;;;;;5182439;28;20434;-48
2022/09/01 13:13:39;;;;;;;0.70;0.70;;;22.30;46.30;;;;;;5169293;28;20475;-52
2022/09/01 13:16:11;;;;;;;0.80;0.80;;;22.20;46.30;;;;;;5179146;28;20458;-53
2022/09/01 13:18:42;;;;;;;1.53;0.50;;;21.90;46.50;;;;;;5179430;28;20459;-51
2022/09/01 13:21:14;;;;;;;0.53;0.53;;;21.70;47.10;;;;;;5198415;28;20663;-52
2022/09/01 13:23:45;;;;;;;0.73;0.73;;;21.60;47.60;;;;;;5193635;28;20815;-51
2022/09/01 13:26:16;;;;;;;0.70;0.70;;;21.40;47.40;;;;;;5179194;28;20439;-50
2022/09/01 13:28:47;;;;;;;2.53;0.87;;;21.30;47.80;;;;;;5180749;28;20199;-52
2022/09/01 13:31:18;;;;;;;1.03;0.77;;;21.10;48.40;;;;;;5182431;28;20265;-50
2022/09/01 13:33:49;;;;;;;0.57;0.57;;;21.00;48.80;;;;;;5181396;28;20497;-52